sensor_id;sensor_type;location;lat;lon;timestamp;P1;durP1;ratioP1;P2;durP2;ratioP2
12880;SDS011;6508;53.786;9.996;2023-08-17T00:00:44;2.22;;;2.05;;
12880;SDS011;6508;53.786;9.996;2023-08-17T00:03:12;4.75;;;2.60;;
12880;SDS011;6508;53.786;9.996;2023-08-17T00:05:40;2.60;;;2.40;;
12880;SDS011;6508;53.786;9.996;2023-08-17T00:08:08;4.10;;;2.22;;
12880;SDS011;6508;53.786;9.996;2023-08-17T00:10:38;2.17;;;1.98;;
12880;SDS011;6508;53.786;9.996;2023-08-17T00:13:06;5.78;;;2.50;;
12880;SDS011;6508;53.786;9.996;2023-08-17T00:15:34;2.78;;;2.35;;
12880;SDS011;6508;53.786;9.996;2023-08-17T00:18:02;5.43;;;2.55;;
12880;SDS011;6508;53.786;9.996;2023-08-17T00:20:30;2.88;;;2.20;;
12880;SDS011;6508;53.786;9.996;2023-08-17T00:22:58;3.65;;;2.42;;
12880;SDS011;6508;53.786;9.996;2023-08-17T00:25:27;3.47;;;2.38;;
12880;SDS011;6508;53.786;9.996;2023-08-17T00:27:56;2.85;;;2.20;;
12880;SDS011;6508;53.786;9.996;2023-08-17T00:30:24;2.50;;;2.30;;
12880;SDS011;6508;53.786;9.996;2023-08-17T00:32:52;3.25;;;2.55;;
12880;SDS011;6508;53.786;9.996;2023-08-17T00:35:20;4.40;;;2.30;;
12880;SDS011;6508;53.786;9.996;2023-08-17T00:37:48;2.42;;;2.20;;
12880;SDS011;6508;53.786;9.996;2023-08-17T00:40:16;3.45;;;2.63;;
12880;SDS011;6508;53.786;9.996;2023-08-17T00:42:44;3.70;;;2.70;;
12880;SDS011;6508;53.786;9.996;2023-08-17T00:45:17;3.20;;;2.25;;
12880;SDS011;6508;53.786;9.996;2023-08-17T00:47:46;3.83;;;2.40;;
12880;SDS011;6508;53.786;9.996;2023-08-17T00:50:13;2.53;;;2.33;;
12880;SDS011;6508;53.786;9.996;2023-08-17T00:52:42;3.67;;;2.78;;
12880;SDS011;6508;53.786;9.996;2023-08-17T00:55:10;3.25;;;2.55;;
12880;SDS011;6508;53.786;9.996;2023-08-17T00:57:39;3.05;;;2.10;;
12880;SDS011;6508;53.786;9.996;2023-08-17T01:00:07;5.05;;;2.65;;
12880;SDS011;6508;53.786;9.996;2023-08-17T01:02:37;3.30;;;2.20;;
12880;SDS011;6508;53.786;9.996;2023-08-17T01:05:05;2.35;;;2.17;;
12880;SDS011;6508;53.786;9.996;2023-08-17T01:07:33;2.65;;;2.30;;
12880;SDS011;6508;53.786;9.996;2023-08-17T01:10:01;2.97;;;2.33;;
12880;SDS011;6508;53.786;9.996;2023-08-17T01:12:30;3.90;;;2.88;;
12880;SDS011;6508;53.786;9.996;2023-08-17T01:15:01;2.58;;;2.38;;
12880;SDS011;6508;53.786;9.996;2023-08-17T01:17:34;3.13;;;2.83;;
12880;SDS011;6508;53.786;9.996;2023-08-17T01:20:07;3.40;;;2.72;;
12880;SDS011;6508;53.786;9.996;2023-08-17T01:22:35;2.65;;;2.45;;
12880;SDS011;6508;53.786;9.996;2023-08-17T01:25:06;3.50;;;2.30;;
12880;SDS011;6508;53.786;9.996;2023-08-17T01:27:36;3.00;;;2.63;;
12880;SDS011;6508;53.786;9.996;2023-08-17T01:30:04;4.70;;;2.47;;
12880;SDS011;6508;53.786;9.996;2023-08-17T01:32:34;3.05;;;2.20;;
12880;SDS011;6508;53.786;9.996;2023-08-17T01:37:47;3.22;;;2.65;;
12880;SDS011;6508;53.786;9.996;2023-08-17T01:40:18;3.08;;;2.78;;
12880;SDS011;6508;53.786;9.996;2023-08-17T01:42:47;5.65;;;2.70;;
12880;SDS011;6508;53.786;9.996;2023-08-17T01:45:16;5.38;;;2.85;;
12880;SDS011;6508;53.786;9.996;2023-08-17T01:47:43;4.20;;;2.67;;
12880;SDS011;6508;53.786;9.996;2023-08-17T01:50:13;5.22;;;2.35;;
12880;SDS011;6508;53.786;9.996;2023-08-17T01:52:40;4.18;;;2.30;;
12880;SDS011;6508;53.786;9.996;2023-08-17T01:55:08;2.63;;;2.42;;
12880;SDS011;6508;53.786;9.996;2023-08-17T01:57:38;3.10;;;2.47;;
12880;SDS011;6508;53.786;9.996;2023-08-17T02:00:07;2.40;;;1.80;;
12880;SDS011;6508;53.786;9.996;2023-08-17T02:02:39;5.90;;;2.53;;
12880;SDS011;6508;53.786;9.996;2023-08-17T02:05:08;8.55;;;3.13;;
12880;SDS011;6508;53.786;9.996;2023-08-17T02:07:36;2.53;;;2.15;;
12880;SDS011;6508;53.786;9.996;2023-08-17T02:10:05;2.30;;;2.10;;
12880;SDS011;6508;53.786;9.996;2023-08-17T02:12:32;4.72;;;2.47;;
12880;SDS011;6508;53.786;9.996;2023-08-17T02:15:03;2.22;;;2.03;;
12880;SDS011;6508;53.786;9.996;2023-08-17T02:17:31;4.05;;;2.00;;
12880;SDS011;6508;53.786;9.996;2023-08-17T02:19:59;4.32;;;2.33;;
12880;SDS011;6508;53.786;9.996;2023-08-17T02:22:26;2.17;;;1.88;;
12880;SDS011;6508;53.786;9.996;2023-08-17T02:24:55;4.68;;;2.40;;
12880;SDS011;6508;53.786;9.996;2023-08-17T02:27:22;3.75;;;2.45;;
12880;SDS011;6508;53.786;9.996;2023-08-17T02:29:51;4.60;;;2.50;;
12880;SDS011;6508;53.786;9.996;2023-08-17T02:32:21;2.30;;;2.15;;
12880;SDS011;6508;53.786;9.996;2023-08-17T02:34:49;3.45;;;2.47;;
12880;SDS011;6508;53.786;9.996;2023-08-17T02:37:17;2.30;;;2.20;;
12880;SDS011;6508;53.786;9.996;2023-08-17T02:39:45;2.45;;;2.25;;
12880;SDS011;6508;53.786;9.996;2023-08-17T02:42:12;3.47;;;2.33;;
12880;SDS011;6508;53.786;9.996;2023-08-17T02:44:40;3.95;;;2.50;;
12880;SDS011;6508;53.786;9.996;2023-08-17T02:47:09;2.17;;;1.98;;
12880;SDS011;6508;53.786;9.996;2023-08-17T02:49:38;2.53;;;2.28;;
12880;SDS011;6508;53.786;9.996;2023-08-17T02:52:06;4.05;;;2.08;;
12880;SDS011;6508;53.786;9.996;2023-08-17T02:54:35;2.05;;;1.95;;
12880;SDS011;6508;53.786;9.996;2023-08-17T02:57:02;2.88;;;1.92;;
12880;SDS011;6508;53.786;9.996;2023-08-17T02:59:30;3.53;;;2.30;;
12880;SDS011;6508;53.786;9.996;2023-08-17T03:01:59;3.38;;;2.10;;
12880;SDS011;6508;53.786;9.996;2023-08-17T03:04:27;3.10;;;1.85;;
12880;SDS011;6508;53.786;9.996;2023-08-17T03:06:57;2.80;;;2.05;;
12880;SDS011;6508;53.786;9.996;2023-08-17T03:09:25;3.20;;;1.90;;
12880;SDS011;6508;53.786;9.996;2023-08-17T03:11:53;2.13;;;2.00;;
12880;SDS011;6508;53.786;9.996;2023-08-17T03:14:22;2.72;;;1.90;;
12880;SDS011;6508;53.786;9.996;2023-08-17T03:16:49;2.10;;;1.92;;
12880;SDS011;6508;53.786;9.996;2023-08-17T03:19:17;1.88;;;1.70;;
12880;SDS011;6508;53.786;9.996;2023-08-17T03:21:45;3.63;;;2.20;;
12880;SDS011;6508;53.786;9.996;2023-08-17T03:24:14;2.15;;;2.00;;
12880;SDS011;6508;53.786;9.996;2023-08-17T03:26:42;2.47;;;2.10;;
12880;SDS011;6508;53.786;9.996;2023-08-17T03:29:10;3.20;;;1.90;;
12880;SDS011;6508;53.786;9.996;2023-08-17T03:31:38;4.43;;;2.50;;
12880;SDS011;6508;53.786;9.996;2023-08-17T03:34:07;3.10;;;2.05;;
12880;SDS011;6508;53.786;9.996;2023-08-17T03:36:35;3.55;;;2.50;;
12880;SDS011;6508;53.786;9.996;2023-08-17T03:39:03;4.50;;;2.47;;
12880;SDS011;6508;53.786;9.996;2023-08-17T03:41:32;2.70;;;2.00;;
12880;SDS011;6508;53.786;9.996;2023-08-17T03:44:00;2.22;;;1.80;;
12880;SDS011;6508;53.786;9.996;2023-08-17T03:46:29;2.80;;;2.13;;
12880;SDS011;6508;53.786;9.996;2023-08-17T03:48:57;2.28;;;1.95;;
12880;SDS011;6508;53.786;9.996;2023-08-17T03:51:25;2.75;;;1.90;;
12880;SDS011;6508;53.786;9.996;2023-08-17T03:53:53;2.42;;;2.22;;
12880;SDS011;6508;53.786;9.996;2023-08-17T03:56:21;3.75;;;2.30;;
12880;SDS011;6508;53.786;9.996;2023-08-17T03:58:52;4.07;;;2.40;;
12880;SDS011;6508;53.786;9.996;2023-08-17T04:01:21;2.50;;;2.30;;
12880;SDS011;6508;53.786;9.996;2023-08-17T04:03:49;3.85;;;2.55;;
12880;SDS011;6508;53.786;9.996;2023-08-17T04:06:17;3.15;;;2.58;;
12880;SDS011;6508;53.786;9.996;2023-08-17T04:08:45;3.70;;;2.25;;
12880;SDS011;6508;53.786;9.996;2023-08-17T04:11:13;5.65;;;2.78;;
12880;SDS011;6508;53.786;9.996;2023-08-17T04:13:41;4.38;;;2.70;;
12880;SDS011;6508;53.786;9.996;2023-08-17T04:16:10;4.47;;;3.15;;
12880;SDS011;6508;53.786;9.996;2023-08-17T04:18:39;4.75;;;2.67;;
12880;SDS011;6508;53.786;9.996;2023-08-17T04:21:07;4.00;;;2.67;;
12880;SDS011;6508;53.786;9.996;2023-08-17T04:23:34;3.65;;;2.85;;
12880;SDS011;6508;53.786;9.996;2023-08-17T04:26:02;4.55;;;2.80;;
12880;SDS011;6508;53.786;9.996;2023-08-17T04:28:31;5.55;;;2.90;;
12880;SDS011;6508;53.786;9.996;2023-08-17T04:30:59;4.07;;;2.90;;
12880;SDS011;6508;53.786;9.996;2023-08-17T04:33:32;6.70;;;2.72;;
12880;SDS011;6508;53.786;9.996;2023-08-17T04:36:00;3.47;;;2.55;;
12880;SDS011;6508;53.786;9.996;2023-08-17T04:38:28;4.75;;;3.15;;
12880;SDS011;6508;53.786;9.996;2023-08-17T04:40:56;4.43;;;2.70;;
12880;SDS011;6508;53.786;9.996;2023-08-17T04:43:24;3.63;;;2.72;;
12880;SDS011;6508;53.786;9.996;2023-08-17T04:45:52;3.60;;;2.70;;
12880;SDS011;6508;53.786;9.996;2023-08-17T04:48:20;3.53;;;3.22;;
12880;SDS011;6508;53.786;9.996;2023-08-17T04:50:50;4.07;;;2.53;;
12880;SDS011;6508;53.786;9.996;2023-08-17T04:53:18;4.38;;;3.25;;
12880;SDS011;6508;53.786;9.996;2023-08-17T04:55:48;4.68;;;3.03;;
12880;SDS011;6508;53.786;9.996;2023-08-17T04:58:16;6.22;;;3.53;;
12880;SDS011;6508;53.786;9.996;2023-08-17T05:00:44;4.88;;;3.25;;
12880;SDS011;6508;53.786;9.996;2023-08-17T05:03:12;5.30;;;3.35;;
12880;SDS011;6508;53.786;9.996;2023-08-17T05:06:00;4.55;;;3.30;;
12880;SDS011;6508;53.786;9.996;2023-08-17T05:08:28;4.00;;;3.13;;
12880;SDS011;6508;53.786;9.996;2023-08-17T05:10:56;3.97;;;2.78;;
12880;SDS011;6508;53.786;9.996;2023-08-17T05:13:25;4.97;;;3.30;;
12880;SDS011;6508;53.786;9.996;2023-08-17T05:15:58;3.40;;;2.70;;
12880;SDS011;6508;53.786;9.996;2023-08-17T05:18:26;3.17;;;2.88;;
12880;SDS011;6508;53.786;9.996;2023-08-17T05:20:54;4.10;;;3.03;;
12880;SDS011;6508;53.786;9.996;2023-08-17T05:23:24;4.65;;;2.80;;
12880;SDS011;6508;53.786;9.996;2023-08-17T05:25:54;5.85;;;3.20;;
12880;SDS011;6508;53.786;9.996;2023-08-17T05:28:23;3.42;;;2.65;;
12880;SDS011;6508;53.786;9.996;2023-08-17T05:30:53;3.60;;;3.30;;
12880;SDS011;6508;53.786;9.996;2023-08-17T05:33:23;7.00;;;3.38;;
12880;SDS011;6508;53.786;9.996;2023-08-17T05:35:53;3.90;;;2.63;;
12880;SDS011;6508;53.786;9.996;2023-08-17T05:38:22;4.55;;;2.80;;
12880;SDS011;6508;53.786;9.996;2023-08-17T05:40:55;5.38;;;3.33;;
12880;SDS011;6508;53.786;9.996;2023-08-17T05:43:24;4.60;;;3.28;;
12880;SDS011;6508;53.786;9.996;2023-08-17T05:45:53;5.57;;;3.15;;
12880;SDS011;6508;53.786;9.996;2023-08-17T05:48:22;7.43;;;3.58;;
12880;SDS011;6508;53.786;9.996;2023-08-17T05:50:50;4.60;;;3.10;;
12880;SDS011;6508;53.786;9.996;2023-08-17T05:53:18;3.42;;;3.13;;
12880;SDS011;6508;53.786;9.996;2023-08-17T05:55:46;4.80;;;3.63;;
12880;SDS011;6508;53.786;9.996;2023-08-17T05:58:15;4.60;;;3.13;;
12880;SDS011;6508;53.786;9.996;2023-08-17T06:00:44;4.60;;;2.88;;
12880;SDS011;6508;53.786;9.996;2023-08-17T06:03:12;3.67;;;3.08;;
12880;SDS011;6508;53.786;9.996;2023-08-17T06:05:39;6.53;;;3.33;;
12880;SDS011;6508;53.786;9.996;2023-08-17T06:08:08;4.25;;;3.17;;
12880;SDS011;6508;53.786;9.996;2023-08-17T06:10:36;5.20;;;2.95;;
12880;SDS011;6508;53.786;9.996;2023-08-17T06:13:04;4.82;;;3.50;;
12880;SDS011;6508;53.786;9.996;2023-08-17T06:15:33;4.45;;;3.40;;
12880;SDS011;6508;53.786;9.996;2023-08-17T06:18:01;6.47;;;3.58;;
12880;SDS011;6508;53.786;9.996;2023-08-17T06:20:29;4.18;;;3.78;;
12880;SDS011;6508;53.786;9.996;2023-08-17T06:22:57;5.00;;;3.45;;
12880;SDS011;6508;53.786;9.996;2023-08-17T06:25:27;5.72;;;4.15;;
12880;SDS011;6508;53.786;9.996;2023-08-17T06:27:54;4.43;;;3.75;;
12880;SDS011;6508;53.786;9.996;2023-08-17T06:30:23;4.10;;;3.80;;
12880;SDS011;6508;53.786;9.996;2023-08-17T06:32:52;7.70;;;4.00;;
12880;SDS011;6508;53.786;9.996;2023-08-17T06:35:20;4.07;;;3.42;;
12880;SDS011;6508;53.786;9.996;2023-08-17T06:37:48;4.68;;;4.18;;
12880;SDS011;6508;53.786;9.996;2023-08-17T06:40:17;4.72;;;4.20;;
12880;SDS011;6508;53.786;9.996;2023-08-17T06:42:45;8.50;;;4.70;;
12880;SDS011;6508;53.786;9.996;2023-08-17T06:45:13;4.32;;;3.90;;
12880;SDS011;6508;53.786;9.996;2023-08-17T06:47:44;4.55;;;4.15;;
12880;SDS011;6508;53.786;9.996;2023-08-17T06:50:16;5.57;;;4.50;;
12880;SDS011;6508;53.786;9.996;2023-08-17T06:52:44;6.85;;;4.22;;
12880;SDS011;6508;53.786;9.996;2023-08-17T06:55:11;7.30;;;4.93;;
12880;SDS011;6508;53.786;9.996;2023-08-17T06:57:39;6.70;;;4.50;;
12880;SDS011;6508;53.786;9.996;2023-08-17T07:00:07;5.55;;;4.57;;
12880;SDS011;6508;53.786;9.996;2023-08-17T07:02:37;9.05;;;4.70;;
12880;SDS011;6508;53.786;9.996;2023-08-17T07:05:21;8.70;;;5.13;;
12880;SDS011;6508;53.786;9.996;2023-08-17T07:07:49;10.27;;;4.60;;
12880;SDS011;6508;53.786;9.996;2023-08-17T07:10:17;8.60;;;5.15;;
12880;SDS011;6508;53.786;9.996;2023-08-17T07:12:45;9.05;;;4.45;;
12880;SDS011;6508;53.786;9.996;2023-08-17T07:15:12;7.18;;;4.72;;
12880;SDS011;6508;53.786;9.996;2023-08-17T07:17:41;7.55;;;5.07;;
12880;SDS011;6508;53.786;9.996;2023-08-17T07:20:09;8.85;;;5.13;;
12880;SDS011;6508;53.786;9.996;2023-08-17T07:22:42;8.13;;;5.13;;
12880;SDS011;6508;53.786;9.996;2023-08-17T07:25:10;7.25;;;4.82;;
12880;SDS011;6508;53.786;9.996;2023-08-17T07:27:38;9.23;;;5.80;;
12880;SDS011;6508;53.786;9.996;2023-08-17T07:30:06;10.02;;;5.47;;
12880;SDS011;6508;53.786;9.996;2023-08-17T07:32:34;9.13;;;5.20;;
12880;SDS011;6508;53.786;9.996;2023-08-17T07:35:02;8.85;;;5.10;;
12880;SDS011;6508;53.786;9.996;2023-08-17T07:37:31;8.48;;;5.30;;
12880;SDS011;6508;53.786;9.996;2023-08-17T07:40:02;8.35;;;5.32;;
12880;SDS011;6508;53.786;9.996;2023-08-17T07:42:31;10.43;;;5.75;;
12880;SDS011;6508;53.786;9.996;2023-08-17T07:44:59;8.57;;;5.68;;
12880;SDS011;6508;53.786;9.996;2023-08-17T07:47:27;9.25;;;5.57;;
12880;SDS011;6508;53.786;9.996;2023-08-17T07:49:56;10.90;;;5.50;;
12880;SDS011;6508;53.786;9.996;2023-08-17T07:52:28;6.97;;;5.65;;
12880;SDS011;6508;53.786;9.996;2023-08-17T07:54:55;10.63;;;6.07;;
12880;SDS011;6508;53.786;9.996;2023-08-17T07:57:25;12.70;;;6.80;;
12880;SDS011;6508;53.786;9.996;2023-08-17T07:59:53;8.88;;;5.65;;
12880;SDS011;6508;53.786;9.996;2023-08-17T08:02:21;8.63;;;5.65;;
12880;SDS011;6508;53.786;9.996;2023-08-17T08:04:49;10.52;;;6.43;;
12880;SDS011;6508;53.786;9.996;2023-08-17T08:07:17;10.57;;;5.63;;
12880;SDS011;6508;53.786;9.996;2023-08-17T08:09:45;8.50;;;5.35;;
12880;SDS011;6508;53.786;9.996;2023-08-17T08:12:12;6.05;;;5.35;;
12880;SDS011;6508;53.786;9.996;2023-08-17T08:14:42;9.32;;;5.90;;
12880;SDS011;6508;53.786;9.996;2023-08-17T08:17:10;7.55;;;5.72;;
12880;SDS011;6508;53.786;9.996;2023-08-17T08:19:38;8.35;;;5.20;;
12880;SDS011;6508;53.786;9.996;2023-08-17T08:22:06;9.70;;;5.55;;
12880;SDS011;6508;53.786;9.996;2023-08-17T08:24:34;11.48;;;5.95;;
12880;SDS011;6508;53.786;9.996;2023-08-17T08:27:04;12.02;;;7.85;;
12880;SDS011;6508;53.786;9.996;2023-08-17T08:29:32;11.27;;;7.13;;
12880;SDS011;6508;53.786;9.996;2023-08-17T08:32:01;9.23;;;6.60;;
12880;SDS011;6508;53.786;9.996;2023-08-17T08:34:30;7.68;;;5.90;;
12880;SDS011;6508;53.786;9.996;2023-08-17T08:36:57;11.02;;;5.50;;
12880;SDS011;6508;53.786;9.996;2023-08-17T08:39:25;12.05;;;6.10;;
12880;SDS011;6508;53.786;9.996;2023-08-17T08:41:53;10.20;;;6.38;;
12880;SDS011;6508;53.786;9.996;2023-08-17T08:44:21;12.50;;;6.35;;
12880;SDS011;6508;53.786;9.996;2023-08-17T08:46:50;10.00;;;4.78;;
12880;SDS011;6508;53.786;9.996;2023-08-17T08:49:22;0.00;;;0.00;;
12880;SDS011;6508;53.786;9.996;2023-08-17T08:51:50;0.00;;;0.00;;
12880;SDS011;6508;53.786;9.996;2023-08-17T08:54:20;0.00;;;0.00;;
12880;SDS011;6508;53.786;9.996;2023-08-17T08:56:48;0.00;;;0.00;;
12880;SDS011;6508;53.786;9.996;2023-08-17T08:59:18;0.00;;;0.00;;
12880;SDS011;6508;53.786;9.996;2023-08-17T09:01:48;0.00;;;0.00;;
12880;SDS011;6508;53.786;9.996;2023-08-17T09:04:17;0.00;;;0.00;;
12880;SDS011;6508;53.786;9.996;2023-08-17T09:06:46;0.00;;;0.00;;
12880;SDS011;6508;53.786;9.996;2023-08-17T09:09:14;1.20;;;0.20;;
12880;SDS011;6508;53.786;9.996;2023-08-17T09:11:43;0.00;;;0.00;;
12880;SDS011;6508;53.786;9.996;2023-08-17T09:14:11;0.00;;;0.00;;
12880;SDS011;6508;53.786;9.996;2023-08-17T09:16:39;0.00;;;0.00;;
12880;SDS011;6508;53.786;9.996;2023-08-17T09:19:06;0.00;;;0.00;;
12880;SDS011;6508;53.786;9.996;2023-08-17T09:21:34;1.00;;;1.00;;
12880;SDS011;6508;53.786;9.996;2023-08-17T09:24:04;0.00;;;0.00;;
12880;SDS011;6508;53.786;9.996;2023-08-17T09:26:31;0.15;;;0.00;;
12880;SDS011;6508;53.786;9.996;2023-08-17T09:29:00;0.00;;;0.00;;
12880;SDS011;6508;53.786;9.996;2023-08-17T09:31:30;0.30;;;0.30;;
12880;SDS011;6508;53.786;9.996;2023-08-17T09:33:58;0.00;;;0.00;;
12880;SDS011;6508;53.786;9.996;2023-08-17T09:36:26;0.20;;;0.20;;
12880;SDS011;6508;53.786;9.996;2023-08-17T09:38:54;0.00;;;0.00;;
12880;SDS011;6508;53.786;9.996;2023-08-17T09:41:25;0.00;;;0.00;;
12880;SDS011;6508;53.786;9.996;2023-08-17T09:43:54;0.00;;;0.00;;
12880;SDS011;6508;53.786;9.996;2023-08-17T09:46:23;0.00;;;0.00;;
12880;SDS011;6508;53.786;9.996;2023-08-17T09:48:53;0.00;;;0.00;;
12880;SDS011;6508;53.786;9.996;2023-08-17T09:51:21;0.00;;;0.00;;
12880;SDS011;6508;53.786;9.996;2023-08-17T09:53:51;0.00;;;0.00;;
12880;SDS011;6508;53.786;9.996;2023-08-17T09:56:27;0.00;;;0.00;;
12880;SDS011;6508;53.786;9.996;2023-08-17T09:58:56;0.32;;;0.32;;
12880;SDS011;6508;53.786;9.996;2023-08-17T10:01:24;0.00;;;0.00;;
12880;SDS011;6508;53.786;9.996;2023-08-17T10:03:53;0.00;;;0.00;;
12880;SDS011;6508;53.786;9.996;2023-08-17T10:06:24;0.17;;;0.17;;
12880;SDS011;6508;53.786;9.996;2023-08-17T10:08:54;0.00;;;0.00;;
12880;SDS011;6508;53.786;9.996;2023-08-17T10:11:24;0.00;;;0.00;;
12880;SDS011;6508;53.786;9.996;2023-08-17T10:13:56;0.00;;;0.00;;
12880;SDS011;6508;53.786;9.996;2023-08-17T10:16:26;0.00;;;0.00;;
12880;SDS011;6508;53.786;9.996;2023-08-17T10:18:59;0.00;;;0.00;;
12880;SDS011;6508;53.786;9.996;2023-08-17T10:21:31;0.00;;;0.00;;
12880;SDS011;6508;53.786;9.996;2023-08-17T10:23:59;0.00;;;0.00;;
12880;SDS011;6508;53.786;9.996;2023-08-17T10:26:28;0.00;;;0.00;;
12880;SDS011;6508;53.786;9.996;2023-08-17T10:28:58;0.00;;;0.00;;
12880;SDS011;6508;53.786;9.996;2023-08-17T10:31:38;0.00;;;0.00;;
12880;SDS011;6508;53.786;9.996;2023-08-17T10:34:06;0.00;;;0.00;;
12880;SDS011;6508;53.786;9.996;2023-08-17T10:36:34;0.00;;;0.00;;
12880;SDS011;6508;53.786;9.996;2023-08-17T10:39:17;0.00;;;0.00;;
12880;SDS011;6508;53.786;9.996;2023-08-17T10:41:46;0.00;;;0.00;;
12880;SDS011;6508;53.786;9.996;2023-08-17T10:44:15;0.00;;;0.00;;
12880;SDS011;6508;53.786;9.996;2023-08-17T10:46:43;0.00;;;0.00;;
12880;SDS011;6508;53.786;9.996;2023-08-17T10:49:25;0.00;;;0.00;;
12880;SDS011;6508;53.786;9.996;2023-08-17T10:51:59;0.05;;;0.05;;
12880;SDS011;6508;53.786;9.996;2023-08-17T10:54:35;0.00;;;0.00;;
12880;SDS011;6508;53.786;9.996;2023-08-17T11:02:35;0.00;;;0.00;;
12880;SDS011;6508;53.786;9.996;2023-08-17T11:05:05;0.77;;;0.35;;
12880;SDS011;6508;53.786;9.996;2023-08-17T11:07:38;0.45;;;0.45;;
12880;SDS011;6508;53.786;9.996;2023-08-17T11:10:13;0.00;;;0.00;;
12880;SDS011;6508;53.786;9.996;2023-08-17T11:12:54;0.00;;;0.00;;
12880;SDS011;6508;53.786;9.996;2023-08-17T11:15:26;0.45;;;0.25;;
12880;SDS011;6508;53.786;9.996;2023-08-17T11:17:55;0.00;;;0.00;;
12880;SDS011;6508;53.786;9.996;2023-08-17T11:20:23;0.93;;;0.22;;
12880;SDS011;6508;53.786;9.996;2023-08-17T11:22:51;0.03;;;0.03;;
12880;SDS011;6508;53.786;9.996;2023-08-17T11:25:20;0.43;;;0.43;;
12880;SDS011;6508;53.786;9.996;2023-08-17T11:27:47;0.00;;;0.00;;
12880;SDS011;6508;53.786;9.996;2023-08-17T11:30:15;0.00;;;0.00;;
12880;SDS011;6508;53.786;9.996;2023-08-17T11:32:43;0.13;;;0.13;;
12880;SDS011;6508;53.786;9.996;2023-08-17T11:35:12;0.00;;;0.00;;
12880;SDS011;6508;53.786;9.996;2023-08-17T11:37:58;0.22;;;0.22;;
12880;SDS011;6508;53.786;9.996;2023-08-17T11:40:25;0.13;;;0.13;;
12880;SDS011;6508;53.786;9.996;2023-08-17T11:42:53;0.00;;;0.00;;
12880;SDS011;6508;53.786;9.996;2023-08-17T11:45:22;0.00;;;0.00;;
12880;SDS011;6508;53.786;9.996;2023-08-17T11:47:53;0.10;;;0.10;;
12880;SDS011;6508;53.786;9.996;2023-08-17T11:50:24;0.17;;;0.17;;
12880;SDS011;6508;53.786;9.996;2023-08-17T11:52:52;0.00;;;0.00;;
12880;SDS011;6508;53.786;9.996;2023-08-17T11:55:19;0.03;;;0.03;;
12880;SDS011;6508;53.786;9.996;2023-08-17T11:57:48;0.00;;;0.00;;
12880;SDS011;6508;53.786;9.996;2023-08-17T12:00:19;0.00;;;0.00;;
12880;SDS011;6508;53.786;9.996;2023-08-17T12:02:47;0.00;;;0.00;;
12880;SDS011;6508;53.786;9.996;2023-08-17T12:05:18;0.00;;;0.00;;
12880;SDS011;6508;53.786;9.996;2023-08-17T12:07:47;0.13;;;0.13;;
12880;SDS011;6508;53.786;9.996;2023-08-17T12:10:17;0.00;;;0.00;;
12880;SDS011;6508;53.786;9.996;2023-08-17T12:12:46;0.05;;;0.05;;
12880;SDS011;6508;53.786;9.996;2023-08-17T12:15:14;0.00;;;0.00;;
12880;SDS011;6508;53.786;9.996;2023-08-17T12:17:46;0.10;;;0.10;;
12880;SDS011;6508;53.786;9.996;2023-08-17T12:20:15;0.00;;;0.00;;
12880;SDS011;6508;53.786;9.996;2023-08-17T12:22:43;0.20;;;0.20;;
12880;SDS011;6508;53.786;9.996;2023-08-17T12:25:12;0.00;;;0.00;;
12880;SDS011;6508;53.786;9.996;2023-08-17T12:27:43;0.00;;;0.00;;
12880;SDS011;6508;53.786;9.996;2023-08-17T12:30:24;0.00;;;0.00;;
12880;SDS011;6508;53.786;9.996;2023-08-17T12:32:52;0.00;;;0.00;;
12880;SDS011;6508;53.786;9.996;2023-08-17T12:35:24;0.00;;;0.00;;
12880;SDS011;6508;53.786;9.996;2023-08-17T12:37:52;0.00;;;0.00;;
12880;SDS011;6508;53.786;9.996;2023-08-17T12:40:21;0.00;;;0.00;;
12880;SDS011;6508;53.786;9.996;2023-08-17T12:42:50;0.00;;;0.00;;
12880;SDS011;6508;53.786;9.996;2023-08-17T12:45:17;0.00;;;0.00;;
12880;SDS011;6508;53.786;9.996;2023-08-17T12:47:45;0.00;;;0.00;;
12880;SDS011;6508;53.786;9.996;2023-08-17T12:50:13;0.00;;;0.00;;
12880;SDS011;6508;53.786;9.996;2023-08-17T12:52:41;0.03;;;0.03;;
12880;SDS011;6508;53.786;9.996;2023-08-17T12:55:12;0.13;;;0.13;;
12880;SDS011;6508;53.786;9.996;2023-08-17T12:57:42;0.00;;;0.00;;
12880;SDS011;6508;53.786;9.996;2023-08-17T13:00:10;0.00;;;0.00;;
12880;SDS011;6508;53.786;9.996;2023-08-17T13:02:38;0.00;;;0.00;;
12880;SDS011;6508;53.786;9.996;2023-08-17T13:05:06;0.00;;;0.00;;
12880;SDS011;6508;53.786;9.996;2023-08-17T13:07:34;0.10;;;0.10;;
12880;SDS011;6508;53.786;9.996;2023-08-17T13:10:02;0.08;;;0.08;;
12880;SDS011;6508;53.786;9.996;2023-08-17T13:12:29;0.00;;;0.00;;
12880;SDS011;6508;53.786;9.996;2023-08-17T13:14:58;0.00;;;0.00;;
12880;SDS011;6508;53.786;9.996;2023-08-17T13:17:26;0.43;;;0.43;;
12880;SDS011;6508;53.786;9.996;2023-08-17T13:19:54;0.00;;;0.00;;
12880;SDS011;6508;53.786;9.996;2023-08-17T13:22:22;0.00;;;0.00;;
12880;SDS011;6508;53.786;9.996;2023-08-17T13:24:50;0.00;;;0.00;;
12880;SDS011;6508;53.786;9.996;2023-08-17T13:27:18;0.00;;;0.00;;
12880;SDS011;6508;53.786;9.996;2023-08-17T13:29:46;0.25;;;0.25;;
12880;SDS011;6508;53.786;9.996;2023-08-17T13:32:15;0.00;;;0.00;;
12880;SDS011;6508;53.786;9.996;2023-08-17T13:34:44;0.10;;;0.10;;
12880;SDS011;6508;53.786;9.996;2023-08-17T13:37:11;0.17;;;0.17;;
12880;SDS011;6508;53.786;9.996;2023-08-17T13:39:40;0.30;;;0.30;;
12880;SDS011;6508;53.786;9.996;2023-08-17T13:42:07;0.00;;;0.00;;
12880;SDS011;6508;53.786;9.996;2023-08-17T13:44:35;0.00;;;0.00;;
12880;SDS011;6508;53.786;9.996;2023-08-17T13:47:03;0.00;;;0.00;;
12880;SDS011;6508;53.786;9.996;2023-08-17T13:49:32;0.00;;;0.00;;
12880;SDS011;6508;53.786;9.996;2023-08-17T13:52:00;0.10;;;0.10;;
12880;SDS011;6508;53.786;9.996;2023-08-17T13:54:28;0.00;;;0.00;;
12880;SDS011;6508;53.786;9.996;2023-08-17T13:56:55;0.00;;;0.00;;
12880;SDS011;6508;53.786;9.996;2023-08-17T13:59:23;0.28;;;0.28;;
12880;SDS011;6508;53.786;9.996;2023-08-17T14:01:51;0.00;;;0.00;;
12880;SDS011;6508;53.786;9.996;2023-08-17T14:04:19;0.00;;;0.00;;
12880;SDS011;6508;53.786;9.996;2023-08-17T14:06:48;0.00;;;0.00;;
12880;SDS011;6508;53.786;9.996;2023-08-17T14:09:17;0.00;;;0.00;;
12880;SDS011;6508;53.786;9.996;2023-08-17T14:11:46;0.00;;;0.00;;
12880;SDS011;6508;53.786;9.996;2023-08-17T14:14:14;0.00;;;0.00;;
12880;SDS011;6508;53.786;9.996;2023-08-17T14:16:41;0.00;;;0.00;;
12880;SDS011;6508;53.786;9.996;2023-08-17T14:19:09;0.00;;;0.00;;
12880;SDS011;6508;53.786;9.996;2023-08-17T14:21:37;0.00;;;0.00;;
12880;SDS011;6508;53.786;9.996;2023-08-17T14:24:07;0.00;;;0.00;;
12880;SDS011;6508;53.786;9.996;2023-08-17T14:26:34;0.00;;;0.00;;
12880;SDS011;6508;53.786;9.996;2023-08-17T14:29:02;0.00;;;0.00;;
12880;SDS011;6508;53.786;9.996;2023-08-17T14:31:30;0.00;;;0.00;;
12880;SDS011;6508;53.786;9.996;2023-08-17T14:33:58;0.15;;;0.15;;
12880;SDS011;6508;53.786;9.996;2023-08-17T14:36:31;0.00;;;0.00;;
12880;SDS011;6508;53.786;9.996;2023-08-17T14:38:59;0.00;;;0.00;;
12880;SDS011;6508;53.786;9.996;2023-08-17T14:41:28;0.00;;;0.00;;
12880;SDS011;6508;53.786;9.996;2023-08-17T14:43:59;0.00;;;0.00;;
12880;SDS011;6508;53.786;9.996;2023-08-17T14:46:28;0.00;;;0.00;;
12880;SDS011;6508;53.786;9.996;2023-08-17T14:48:57;0.00;;;0.00;;
12880;SDS011;6508;53.786;9.996;2023-08-17T14:51:25;0.00;;;0.00;;
12880;SDS011;6508;53.786;9.996;2023-08-17T14:53:56;0.00;;;0.00;;
12880;SDS011;6508;53.786;9.996;2023-08-17T14:56:24;0.00;;;0.00;;
12880;SDS011;6508;53.786;9.996;2023-08-17T14:58:54;0.00;;;0.00;;
12880;SDS011;6508;53.786;9.996;2023-08-17T15:01:22;0.00;;;0.00;;
12880;SDS011;6508;53.786;9.996;2023-08-17T15:03:50;0.00;;;0.00;;
12880;SDS011;6508;53.786;9.996;2023-08-17T15:06:18;0.00;;;0.00;;
12880;SDS011;6508;53.786;9.996;2023-08-17T15:09:00;0.00;;;0.00;;
12880;SDS011;6508;53.786;9.996;2023-08-17T15:11:29;0.00;;;0.00;;
12880;SDS011;6508;53.786;9.996;2023-08-17T15:13:59;0.00;;;0.00;;
12880;SDS011;6508;53.786;9.996;2023-08-17T15:16:26;0.10;;;0.10;;
12880;SDS011;6508;53.786;9.996;2023-08-17T15:18:54;0.00;;;0.00;;